sensor_id;sensor_type;location;lat;lon;timestamp;P1;durP1;ratioP1;P2;durP2;ratioP2
50717;SDS011;60557;51.350;12.410;2023-02-28T00:01:06;4.40;;;2.33;;
50717;SDS011;60557;51.350;12.410;2023-02-28T00:03:33;4.68;;;2.13;;
50717;SDS011;60557;51.350;12.410;2023-02-28T00:06:00;4.28;;;2.20;;
50717;SDS011;60557;51.350;12.410;2023-02-28T00:08:26;8.02;;;2.47;;
50717;SDS011;60557;51.350;12.410;2023-02-28T00:10:53;3.78;;;2.47;;
50717;SDS011;60557;51.350;12.410;2023-02-28T00:13:19;5.13;;;2.63;;
50717;SDS011;60557;51.350;12.410;2023-02-28T00:15:45;6.50;;;2.40;;
50717;SDS011;60557;51.350;12.410;2023-02-28T00:18:13;4.65;;;2.42;;
50717;SDS011;60557;51.350;12.410;2023-02-28T00:20:39;6.30;;;2.97;;
50717;SDS011;60557;51.350;12.410;2023-02-28T00:23:06;5.45;;;2.42;;
50717;SDS011;60557;51.350;12.410;2023-02-28T00:25:34;6.45;;;2.45;;
50717;SDS011;60557;51.350;12.410;2023-02-28T00:28:00;4.95;;;2.50;;
50717;SDS011;60557;51.350;12.410;2023-02-28T00:30:29;4.90;;;2.45;;
50717;SDS011;60557;51.350;12.410;2023-02-28T00:32:55;6.07;;;2.80;;
50717;SDS011;60557;51.350;12.410;2023-02-28T00:35:21;8.32;;;2.35;;
50717;SDS011;60557;51.350;12.410;2023-02-28T00:37:47;4.55;;;2.63;;
50717;SDS011;60557;51.350;12.410;2023-02-28T00:40:14;5.28;;;2.33;;
50717;SDS011;60557;51.350;12.410;2023-02-28T00:42:40;5.75;;;2.50;;
50717;SDS011;60557;51.350;12.410;2023-02-28T00:45:07;6.80;;;2.70;;
50717;SDS011;60557;51.350;12.410;2023-02-28T00:47:33;10.00;;;4.65;;
50717;SDS011;60557;51.350;12.410;2023-02-28T00:50:02;5.97;;;2.67;;
50717;SDS011;60557;51.350;12.410;2023-02-28T00:52:29;4.93;;;3.15;;
50717;SDS011;60557;51.350;12.410;2023-02-28T00:54:55;6.55;;;3.88;;
50717;SDS011;60557;51.350;12.410;2023-02-28T00:57:21;11.07;;;2.72;;
50717;SDS011;60557;51.350;12.410;2023-02-28T00:59:47;6.38;;;2.60;;
50717;SDS011;60557;51.350;12.410;2023-02-28T01:02:13;4.80;;;2.28;;
50717;SDS011;60557;51.350;12.410;2023-02-28T01:04:39;6.97;;;2.78;;
50717;SDS011;60557;51.350;12.410;2023-02-28T01:07:05;5.15;;;2.63;;
50717;SDS011;60557;51.350;12.410;2023-02-28T01:09:34;6.18;;;2.33;;
50717;SDS011;60557;51.350;12.410;2023-02-28T01:12:00;5.75;;;2.58;;
50717;SDS011;60557;51.350;12.410;2023-02-28T01:14:28;4.97;;;2.15;;
50717;SDS011;60557;51.350;12.410;2023-02-28T01:16:54;4.07;;;2.15;;
50717;SDS011;60557;51.350;12.410;2023-02-28T01:19:20;6.30;;;1.92;;
50717;SDS011;60557;51.350;12.410;2023-02-28T01:21:46;5.07;;;2.30;;
50717;SDS011;60557;51.350;12.410;2023-02-28T01:24:12;4.07;;;2.47;;
50717;SDS011;60557;51.350;12.410;2023-02-28T01:26:41;7.72;;;2.30;;
50717;SDS011;60557;51.350;12.410;2023-02-28T01:29:07;5.60;;;2.92;;
50717;SDS011;60557;51.350;12.410;2023-02-28T01:31:33;3.85;;;2.33;;
50717;SDS011;60557;51.350;12.410;2023-02-28T01:34:00;7.97;;;2.50;;
50717;SDS011;60557;51.350;12.410;2023-02-28T01:36:29;4.13;;;2.10;;
50717;SDS011;60557;51.350;12.410;2023-02-28T01:38:55;5.22;;;2.58;;
50717;SDS011;60557;51.350;12.410;2023-02-28T01:41:29;6.38;;;2.33;;
50717;SDS011;60557;51.350;12.410;2023-02-28T01:44:00;4.53;;;2.53;;
50717;SDS011;60557;51.350;12.410;2023-02-28T01:46:30;5.25;;;2.78;;
50717;SDS011;60557;51.350;12.410;2023-02-28T01:53:56;4.18;;;2.63;;
50717;SDS011;60557;51.350;12.410;2023-02-28T01:56:24;5.85;;;2.22;;
50717;SDS011;60557;51.350;12.410;2023-02-28T01:58:52;4.00;;;2.38;;
50717;SDS011;60557;51.350;12.410;2023-02-28T02:01:21;3.80;;;2.33;;
50717;SDS011;60557;51.350;12.410;2023-02-28T02:03:51;5.38;;;2.30;;
50717;SDS011;60557;51.350;12.410;2023-02-28T02:06:25;4.35;;;2.10;;
50717;SDS011;60557;51.350;12.410;2023-02-28T02:08:51;6.93;;;2.70;;
50717;SDS011;60557;51.350;12.410;2023-02-28T02:11:22;7.03;;;2.45;;
50717;SDS011;60557;51.350;12.410;2023-02-28T02:37:38;6.05;;;2.83;;
50717;SDS011;60557;51.350;12.410;2023-02-28T02:40:50;4.60;;;2.47;;
50717;SDS011;60557;51.350;12.410;2023-02-28T02:47:50;9.60;;;3.50;;
50717;SDS011;60557;51.350;12.410;2023-02-28T02:50:19;8.73;;;3.55;;
50717;SDS011;60557;51.350;12.410;2023-02-28T02:52:48;8.48;;;3.03;;
50717;SDS011;60557;51.350;12.410;2023-02-28T02:55:16;6.82;;;3.08;;
50717;SDS011;60557;51.350;12.410;2023-02-28T03:00:10;7.30;;;3.15;;
50717;SDS011;60557;51.350;12.410;2023-02-28T03:02:37;5.55;;;2.63;;
50717;SDS011;60557;51.350;12.410;2023-02-28T03:05:21;6.30;;;2.45;;
50717;SDS011;60557;51.350;12.410;2023-02-28T03:07:49;4.82;;;2.45;;
50717;SDS011;60557;51.350;12.410;2023-02-28T03:10:25;5.03;;;2.40;;
50717;SDS011;60557;51.350;12.410;2023-02-28T03:12:56;7.40;;;3.70;;
50717;SDS011;60557;51.350;12.410;2023-02-28T03:15:32;5.82;;;2.40;;
50717;SDS011;60557;51.350;12.410;2023-02-28T03:18:08;4.28;;;2.60;;
50717;SDS011;60557;51.350;12.410;2023-02-28T03:20:40;5.70;;;3.08;;
50717;SDS011;60557;51.350;12.410;2023-02-28T03:23:18;5.97;;;2.40;;
50717;SDS011;60557;51.350;12.410;2023-02-28T03:25:48;6.50;;;2.33;;
50717;SDS011;60557;51.350;12.410;2023-02-28T03:28:19;4.05;;;2.33;;
50717;SDS011;60557;51.350;12.410;2023-02-28T03:30:59;5.13;;;2.63;;
50717;SDS011;60557;51.350;12.410;2023-02-28T03:33:28;4.78;;;2.80;;
50717;SDS011;60557;51.350;12.410;2023-02-28T03:35:56;7.20;;;2.75;;
50717;SDS011;60557;51.350;12.410;2023-02-28T03:38:28;6.72;;;2.45;;
50717;SDS011;60557;51.350;12.410;2023-02-28T03:41:01;5.82;;;2.30;;
50717;SDS011;60557;51.350;12.410;2023-02-28T03:43:29;5.70;;;3.17;;
50717;SDS011;60557;51.350;12.410;2023-02-28T03:45:56;4.00;;;2.28;;
50717;SDS011;60557;51.350;12.410;2023-02-28T03:48:23;6.40;;;3.03;;
50717;SDS011;60557;51.350;12.410;2023-02-28T03:50:53;6.60;;;3.40;;
50717;SDS011;60557;51.350;12.410;2023-02-28T03:55:56;5.88;;;2.53;;
50717;SDS011;60557;51.350;12.410;2023-02-28T03:59:00;6.78;;;2.60;;
50717;SDS011;60557;51.350;12.410;2023-02-28T04:01:20;6.35;;;2.70;;
50717;SDS011;60557;51.350;12.410;2023-02-28T04:03:49;8.00;;;2.53;;
50717;SDS011;60557;51.350;12.410;2023-02-28T04:06:18;5.63;;;2.83;;
50717;SDS011;60557;51.350;12.410;2023-02-28T04:08:44;6.63;;;2.78;;
50717;SDS011;60557;51.350;12.410;2023-02-28T04:13:42;8.35;;;3.10;;
50717;SDS011;60557;51.350;12.410;2023-02-28T04:16:11;8.07;;;2.90;;
50717;SDS011;60557;51.350;12.410;2023-02-28T04:18:43;4.97;;;2.80;;
50717;SDS011;60557;51.350;12.410;2023-02-28T04:21:09;4.88;;;2.47;;
50717;SDS011;60557;51.350;12.410;2023-02-28T04:23:36;7.38;;;3.08;;
50717;SDS011;60557;51.350;12.410;2023-02-28T04:26:02;5.00;;;2.63;;
50717;SDS011;60557;51.350;12.410;2023-02-28T04:28:29;5.47;;;2.80;;
50717;SDS011;60557;51.350;12.410;2023-02-28T04:30:55;5.38;;;2.58;;
50717;SDS011;60557;51.350;12.410;2023-02-28T04:33:22;4.75;;;2.70;;
50717;SDS011;60557;51.350;12.410;2023-02-28T04:38:25;4.63;;;2.03;;
50717;SDS011;60557;51.350;12.410;2023-02-28T04:40:52;6.13;;;2.58;;
50717;SDS011;60557;51.350;12.410;2023-02-28T04:43:18;12.18;;;3.78;;
50717;SDS011;60557;51.350;12.410;2023-02-28T04:45:44;5.25;;;2.67;;
50717;SDS011;60557;51.350;12.410;2023-02-28T04:48:12;4.53;;;2.67;;
50717;SDS011;60557;51.350;12.410;2023-02-28T04:50:38;5.82;;;2.97;;
50717;SDS011;60557;51.350;12.410;2023-02-28T04:53:04;5.13;;;2.40;;
50717;SDS011;60557;51.350;12.410;2023-02-28T04:55:33;5.40;;;2.85;;
50717;SDS011;60557;51.350;12.410;2023-02-28T04:57:59;5.32;;;2.67;;
50717;SDS011;60557;51.350;12.410;2023-02-28T05:00:25;6.97;;;2.22;;
50717;SDS011;60557;51.350;12.410;2023-02-28T05:02:51;7.53;;;3.17;;
50717;SDS011;60557;51.350;12.410;2023-02-28T05:05:19;4.20;;;2.30;;
50717;SDS011;60557;51.350;12.410;2023-02-28T05:07:45;11.38;;;2.20;;
50717;SDS011;60557;51.350;12.410;2023-02-28T05:10:11;5.65;;;2.75;;
50717;SDS011;60557;51.350;12.410;2023-02-28T05:12:37;5.28;;;2.45;;
50717;SDS011;60557;51.350;12.410;2023-02-28T05:15:04;5.22;;;2.67;;
50717;SDS011;60557;51.350;12.410;2023-02-28T05:17:33;7.88;;;2.80;;
50717;SDS011;60557;51.350;12.410;2023-02-28T05:19:59;5.68;;;2.83;;
50717;SDS011;60557;51.350;12.410;2023-02-28T05:22:25;5.97;;;2.85;;
50717;SDS011;60557;51.350;12.410;2023-02-28T05:24:51;7.57;;;3.20;;
50717;SDS011;60557;51.350;12.410;2023-02-28T05:27:17;8.18;;;2.65;;
50717;SDS011;60557;51.350;12.410;2023-02-28T05:29:43;5.47;;;2.83;;
50717;SDS011;60557;51.350;12.410;2023-02-28T05:32:10;8.18;;;3.28;;
50717;SDS011;60557;51.350;12.410;2023-02-28T05:34:36;8.38;;;3.30;;
50717;SDS011;60557;51.350;12.410;2023-02-28T05:37:02;6.72;;;2.78;;
50717;SDS011;60557;51.350;12.410;2023-02-28T05:39:31;5.70;;;2.88;;
50717;SDS011;60557;51.350;12.410;2023-02-28T05:41:58;6.13;;;3.22;;
50717;SDS011;60557;51.350;12.410;2023-02-28T05:44:26;5.32;;;2.95;;
50717;SDS011;60557;51.350;12.410;2023-02-28T05:46:52;7.55;;;3.20;;
50717;SDS011;60557;51.350;12.410;2023-02-28T05:49:21;7.50;;;2.97;;
50717;SDS011;60557;51.350;12.410;2023-02-28T05:51:47;7.82;;;3.53;;
50717;SDS011;60557;51.350;12.410;2023-02-28T05:54:13;7.93;;;3.10;;
50717;SDS011;60557;51.350;12.410;2023-02-28T05:56:39;9.40;;;3.25;;
50717;SDS011;60557;51.350;12.410;2023-02-28T05:59:09;6.55;;;3.15;;
50717;SDS011;60557;51.350;12.410;2023-02-28T06:01:36;8.15;;;3.50;;
50717;SDS011;60557;51.350;12.410;2023-02-28T06:04:04;10.77;;;3.60;;
50717;SDS011;60557;51.350;12.410;2023-02-28T06:06:30;6.65;;;2.95;;
50717;SDS011;60557;51.350;12.410;2023-02-28T06:08:59;10.30;;;3.25;;
50717;SDS011;60557;51.350;12.410;2023-02-28T06:11:27;6.15;;;2.72;;
50717;SDS011;60557;51.350;12.410;2023-02-28T06:13:56;9.10;;;3.42;;
50717;SDS011;60557;51.350;12.410;2023-02-28T06:16:24;10.30;;;3.65;;
50717;SDS011;60557;51.350;12.410;2023-02-28T06:18:53;7.57;;;3.80;;
50717;SDS011;60557;51.350;12.410;2023-02-28T06:21:22;8.52;;;3.47;;
50717;SDS011;60557;51.350;12.410;2023-02-28T06:23:54;7.65;;;3.05;;
50717;SDS011;60557;51.350;12.410;2023-02-28T06:26:21;6.97;;;3.20;;
50717;SDS011;60557;51.350;12.410;2023-02-28T06:28:47;7.47;;;3.30;;
50717;SDS011;60557;51.350;12.410;2023-02-28T06:31:14;6.25;;;3.42;;
50717;SDS011;60557;51.350;12.410;2023-02-28T06:33:41;5.63;;;2.72;;
50717;SDS011;60557;51.350;12.410;2023-02-28T06:36:07;5.82;;;2.83;;
50717;SDS011;60557;51.350;12.410;2023-02-28T06:38:34;6.72;;;3.22;;
50717;SDS011;60557;51.350;12.410;2023-02-28T06:41:03;7.88;;;2.75;;
50717;SDS011;60557;51.350;12.410;2023-02-28T06:43:30;8.50;;;3.55;;
50717;SDS011;60557;51.350;12.410;2023-02-28T06:46:01;10.23;;;3.60;;
50717;SDS011;60557;51.350;12.410;2023-02-28T06:48:27;8.57;;;3.40;;
50717;SDS011;60557;51.350;12.410;2023-02-28T06:51:06;8.32;;;3.70;;
50717;SDS011;60557;51.350;12.410;2023-02-28T06:53:32;7.93;;;3.05;;
50717;SDS011;60557;51.350;12.410;2023-02-28T06:55:59;8.32;;;3.40;;
50717;SDS011;60557;51.350;12.410;2023-02-28T06:58:30;7.25;;;2.80;;
50717;SDS011;60557;51.350;12.410;2023-02-28T07:00:56;8.25;;;3.03;;
50717;SDS011;60557;51.350;12.410;2023-02-28T07:03:22;4.10;;;2.53;;
50717;SDS011;60557;51.350;12.410;2023-02-28T07:05:48;4.47;;;2.97;;
50717;SDS011;60557;51.350;12.410;2023-02-28T07:08:14;5.50;;;3.13;;
50717;SDS011;60557;51.350;12.410;2023-02-28T07:10:41;5.93;;;2.80;;
50717;SDS011;60557;51.350;12.410;2023-02-28T07:13:07;7.57;;;2.92;;
50717;SDS011;60557;51.350;12.410;2023-02-28T07:15:36;4.95;;;3.00;;
50717;SDS011;60557;51.350;12.410;2023-02-28T07:18:03;9.25;;;3.83;;
50717;SDS011;60557;51.350;12.410;2023-02-28T07:20:29;10.20;;;3.22;;
50717;SDS011;60557;51.350;12.410;2023-02-28T07:22:55;8.95;;;4.35;;
50717;SDS011;60557;51.350;12.410;2023-02-28T07:25:27;8.98;;;3.20;;
50717;SDS011;60557;51.350;12.410;2023-02-28T07:27:56;5.50;;;2.83;;
50717;SDS011;60557;51.350;12.410;2023-02-28T07:30:24;9.57;;;3.05;;
50717;SDS011;60557;51.350;12.410;2023-02-28T07:32:50;10.23;;;3.55;;
50717;SDS011;60557;51.350;12.410;2023-02-28T07:35:16;5.82;;;2.97;;
50717;SDS011;60557;51.350;12.410;2023-02-28T07:37:44;8.48;;;3.13;;
50717;SDS011;60557;51.350;12.410;2023-02-28T07:40:12;9.98;;;4.68;;
50717;SDS011;60557;51.350;12.410;2023-02-28T07:42:39;8.95;;;4.15;;
50717;SDS011;60557;51.350;12.410;2023-02-28T07:45:05;8.35;;;3.83;;
50717;SDS011;60557;51.350;12.410;2023-02-28T07:47:37;7.03;;;3.28;;
50717;SDS011;60557;51.350;12.410;2023-02-28T07:50:03;6.07;;;3.50;;
50717;SDS011;60557;51.350;12.410;2023-02-28T07:52:32;12.75;;;5.03;;
50717;SDS011;60557;51.350;12.410;2023-02-28T07:55:01;7.15;;;3.40;;
50717;SDS011;60557;51.350;12.410;2023-02-28T07:57:27;7.47;;;3.70;;
50717;SDS011;60557;51.350;12.410;2023-02-28T07:59:53;9.95;;;3.60;;
50717;SDS011;60557;51.350;12.410;2023-02-28T08:02:19;7.65;;;3.95;;
50717;SDS011;60557;51.350;12.410;2023-02-28T08:04:45;7.78;;;3.00;;
50717;SDS011;60557;51.350;12.410;2023-02-28T08:07:12;12.05;;;3.70;;
50717;SDS011;60557;51.350;12.410;2023-02-28T08:09:48;6.72;;;2.85;;
50717;SDS011;60557;51.350;12.410;2023-02-28T08:12:14;6.82;;;2.72;;
50717;SDS011;60557;51.350;12.410;2023-02-28T08:14:40;5.82;;;2.80;;
50717;SDS011;60557;51.350;12.410;2023-02-28T08:17:06;8.25;;;3.22;;
50717;SDS011;60557;51.350;12.410;2023-02-28T08:19:33;6.03;;;3.30;;
50717;SDS011;60557;51.350;12.410;2023-02-28T08:22:00;7.68;;;3.28;;
50717;SDS011;60557;51.350;12.410;2023-02-28T08:24:26;8.15;;;3.13;;
50717;SDS011;60557;51.350;12.410;2023-02-28T08:26:52;10.07;;;3.30;;
50717;SDS011;60557;51.350;12.410;2023-02-28T08:29:20;5.88;;;2.78;;
50717;SDS011;60557;51.350;12.410;2023-02-28T08:31:47;5.88;;;3.15;;
50717;SDS011;60557;51.350;12.410;2023-02-28T08:34:13;5.35;;;3.15;;
50717;SDS011;60557;51.350;12.410;2023-02-28T08:36:40;5.75;;;2.97;;
50717;SDS011;60557;51.350;12.410;2023-02-28T08:39:07;7.03;;;2.58;;
50717;SDS011;60557;51.350;12.410;2023-02-28T08:41:36;6.10;;;2.92;;
50717;SDS011;60557;51.350;12.410;2023-02-28T08:44:02;8.15;;;2.95;;
50717;SDS011;60557;51.350;12.410;2023-02-28T08:46:33;8.27;;;2.35;;
50717;SDS011;60557;51.350;12.410;2023-02-28T08:48:59;5.45;;;2.17;;
50717;SDS011;60557;51.350;12.410;2023-02-28T08:51:29;6.03;;;2.30;;
50717;SDS011;60557;51.350;12.410;2023-02-28T08:53:57;6.95;;;2.55;;
50717;SDS011;60557;51.350;12.410;2023-02-28T08:56:24;3.75;;;2.10;;
50717;SDS011;60557;51.350;12.410;2023-02-28T08:58:54;8.00;;;3.10;;
50717;SDS011;60557;51.350;12.410;2023-02-28T09:01:21;10.23;;;2.45;;
50717;SDS011;60557;51.350;12.410;2023-02-28T09:03:51;10.13;;;2.78;;
50717;SDS011;60557;51.350;12.410;2023-02-28T09:06:18;6.50;;;3.28;;
50717;SDS011;60557;51.350;12.410;2023-02-28T09:08:44;7.65;;;2.65;;
50717;SDS011;60557;51.350;12.410;2023-02-28T09:11:13;9.85;;;2.65;;
50717;SDS011;60557;51.350;12.410;2023-02-28T09:13:40;5.53;;;2.50;;
50717;SDS011;60557;51.350;12.410;2023-02-28T09:16:07;8.80;;;2.10;;
50717;SDS011;60557;51.350;12.410;2023-02-28T09:18:34;6.20;;;2.85;;
50717;SDS011;60557;51.350;12.410;2023-02-28T09:21:06;4.57;;;2.15;;
50717;SDS011;60557;51.350;12.410;2023-02-28T09:23:33;5.70;;;2.88;;
50717;SDS011;60557;51.350;12.410;2023-02-28T09:25:59;7.43;;;2.90;;
50717;SDS011;60557;51.350;12.410;2023-02-28T09:28:25;6.07;;;2.65;;
50717;SDS011;60557;51.350;12.410;2023-02-28T09:30:52;5.70;;;2.72;;
50717;SDS011;60557;51.350;12.410;2023-02-28T09:33:19;7.55;;;2.63;;
50717;SDS011;60557;51.350;12.410;2023-02-28T09:35:46;6.97;;;2.30;;
50717;SDS011;60557;51.350;12.410;2023-02-28T09:38:15;5.45;;;2.38;;
50717;SDS011;60557;51.350;12.410;2023-02-28T09:40:51;5.78;;;2.28;;
50717;SDS011;60557;51.350;12.410;2023-02-28T09:43:19;5.15;;;2.75;;
50717;SDS011;60557;51.350;12.410;2023-02-28T09:45:52;5.90;;;3.15;;
50717;SDS011;60557;51.350;12.410;2023-02-28T09:48:25;8.02;;;2.45;;
50717;SDS011;60557;51.350;12.410;2023-02-28T09:50:55;6.35;;;2.75;;
50717;SDS011;60557;51.350;12.410;2023-02-28T09:56:04;6.55;;;2.38;;
50717;SDS011;60557;51.350;12.410;2023-02-28T09:58:33;5.78;;;2.80;;
50717;SDS011;60557;51.350;12.410;2023-02-28T10:04:08;5.95;;;2.85;;
50717;SDS011;60557;51.350;12.410;2023-02-28T10:06:33;6.47;;;3.10;;
50717;SDS011;60557;51.350;12.410;2023-02-28T10:09:11;6.68;;;2.78;;
50717;SDS011;60557;51.350;12.410;2023-02-28T10:11:38;5.15;;;2.47;;
50717;SDS011;60557;51.350;12.410;2023-02-28T10:19:25;4.55;;;2.20;;
50717;SDS011;60557;51.350;12.410;2023-02-28T10:26:47;4.28;;;2.70;;
50717;SDS011;60557;51.350;12.410;2023-02-28T10:29:13;4.95;;;2.53;;
50717;SDS011;60557;51.350;12.410;2023-02-28T10:31:40;7.20;;;3.13;;
50717;SDS011;60557;51.350;12.410;2023-02-28T10:34:07;5.00;;;2.72;;
50717;SDS011;60557;51.350;12.410;2023-02-28T10:36:33;7.53;;;3.58;;
50717;SDS011;60557;51.350;12.410;2023-02-28T10:39:01;5.38;;;2.88;;
50717;SDS011;60557;51.350;12.410;2023-02-28T10:41:29;8.25;;;2.38;;
50717;SDS011;60557;51.350;12.410;2023-02-28T10:46:58;4.35;;;2.35;;
50717;SDS011;60557;51.350;12.410;2023-02-28T10:49:25;5.20;;;2.60;;
50717;SDS011;60557;51.350;12.410;2023-02-28T10:51:57;4.65;;;2.80;;
50717;SDS011;60557;51.350;12.410;2023-02-28T10:54:31;6.28;;;2.75;;
50717;SDS011;60557;51.350;12.410;2023-02-28T10:59:33;7.93;;;2.50;;
50717;SDS011;60557;51.350;12.410;2023-02-28T11:01:59;5.60;;;2.65;;
50717;SDS011;60557;51.350;12.410;2023-02-28T11:07:19;5.32;;;2.30;;
50717;SDS011;60557;51.350;12.410;2023-02-28T11:09:50;8.75;;;2.90;;
50717;SDS011;60557;51.350;12.410;2023-02-28T11:12:37;6.55;;;2.75;;
50717;SDS011;60557;51.350;12.410;2023-02-28T11:15:04;7.13;;;3.58;;
50717;SDS011;60557;51.350;12.410;2023-02-28T11:17:31;7.63;;;2.65;;
50717;SDS011;60557;51.350;12.410;2023-02-28T11:20:02;5.03;;;2.60;;
50717;SDS011;60557;51.350;12.410;2023-02-28T11:22:32;8.65;;;2.90;;
50717;SDS011;60557;51.350;12.410;2023-02-28T11:25:01;7.35;;;3.08;;
50717;SDS011;60557;51.350;12.410;2023-02-28T11:29:59;5.22;;;2.65;;
50717;SDS011;60557;51.350;12.410;2023-02-28T11:32:28;9.93;;;3.50;;
50717;SDS011;60557;51.350;12.410;2023-02-28T11:37:37;7.55;;;3.35;;
50717;SDS011;60557;51.350;12.410;2023-02-28T11:40:14;8.18;;;3.30;;
50717;SDS011;60557;51.350;12.410;2023-02-28T11:42:46;7.22;;;3.03;;
50717;SDS011;60557;51.350;12.410;2023-02-28T11:45:18;8.15;;;3.25;;
50717;SDS011;60557;51.350;12.410;2023-02-28T11:53:02;9.80;;;3.53;;
50717;SDS011;60557;51.350;12.410;2023-02-28T12:11:05;7.63;;;3.38;;
50717;SDS011;60557;51.350;12.410;2023-02-28T12:13:48;9.38;;;3.33;;
50717;SDS011;60557;51.350;12.410;2023-02-28T12:23:49;9.45;;;4.10;;
50717;SDS011;60557;51.350;12.410;2023-02-28T12:28:58;6.88;;;3.40;;
50717;SDS011;60557;51.350;12.410;2023-02-28T12:31:27;7.30;;;3.92;;
50717;SDS011;60557;51.350;12.410;2023-02-28T12:34:03;6.05;;;3.65;;
50717;SDS011;60557;51.350;12.410;2023-02-28T12:36:31;8.98;;;4.47;;
50717;SDS011;60557;51.350;12.410;2023-02-28T12:44:27;7.22;;;3.90;;
50717;SDS011;60557;51.350;12.410;2023-02-28T12:46:56;9.82;;;4.05;;
50717;SDS011;60557;51.350;12.410;2023-02-28T12:49:36;6.78;;;3.42;;
50717;SDS011;60557;51.350;12.410;2023-02-28T12:52:04;7.33;;;3.80;;
50717;SDS011;60557;51.350;12.410;2023-02-28T12:57:12;7.05;;;4.00;;
50717;SDS011;60557;51.350;12.410;2023-02-28T12:59:56;7.65;;;4.22;;
50717;SDS011;60557;51.350;12.410;2023-02-28T13:10:25;8.70;;;3.97;;
50717;SDS011;60557;51.350;12.410;2023-02-28T13:13:03;9.02;;;4.25;;
50717;SDS011;60557;51.350;12.410;2023-02-28T13:15:35;9.23;;;4.32;;
50717;SDS011;60557;51.350;12.410;2023-02-28T13:18:20;6.40;;;4.07;;
50717;SDS011;60557;51.350;12.410;2023-02-28T13:20:57;11.60;;;5.00;;
50717;SDS011;60557;51.350;12.410;2023-02-28T13:24:35;7.70;;;3.85;;
50717;SDS011;60557;51.350;12.410;2023-02-28T13:32:18;9.00;;;3.85;;
50717;SDS011;60557;51.350;12.410;2023-02-28T13:34:37;8.40;;;5.55;;
50717;SDS011;60557;51.350;12.410;2023-02-28T13:55:24;9.23;;;3.85;;
50717;SDS011;60557;51.350;12.410;2023-02-28T14:03:06;6.72;;;3.60;;
50717;SDS011;60557;51.350;12.410;2023-02-28T14:05:38;10.38;;;4.18;;
50717;SDS011;60557;51.350;12.410;2023-02-28T14:08:24;8.20;;;4.03;;
50717;SDS011;60557;51.350;12.410;2023-02-28T14:10:52;5.78;;;3.33;;
50717;SDS011;60557;51.350;12.410;2023-02-28T14:13:44;8.60;;;3.53;;
50717;SDS011;60557;51.350;12.410;2023-02-28T14:16:16;11.73;;;4.18;;
50717;SDS011;60557;51.350;12.410;2023-02-28T14:21:27;6.13;;;3.90;;
50717;SDS011;60557;51.350;12.410;2023-02-28T14:24:03;7.38;;;3.92;;
50717;SDS011;60557;51.350;12.410;2023-02-28T14:26:42;9.98;;;4.32;;
50717;SDS011;60557;51.350;12.410;2023-02-28T14:31:54;9.07;;;3.78;;
50717;SDS011;60557;51.350;12.410;2023-02-28T14:34:31;10.32;;;3.75;;
50717;SDS011;60557;51.350;12.410;2023-02-28T14:37:01;9.27;;;4.53;;
50717;SDS011;60557;51.350;12.410;2023-02-28T14:39:28;6.10;;;3.88;;
50717;SDS011;60557;51.350;12.410;2023-02-28T14:42:00;7.53;;;3.95;;
50717;SDS011;60557;51.350;12.410;2023-02-28T14:44:30;9.27;;;4.85;;
50717;SDS011;60557;51.350;12.410;2023-02-28T14:46:57;6.63;;;3.88;;
50717;SDS011;60557;51.350;12.410;2023-02-28T14:49:34;7.05;;;4.20;;
50717;SDS011;60557;51.350;12.410;2023-02-28T14:52:02;8.45;;;4.45;;
50717;SDS011;60557;51.350;12.410;2023-02-28T14:54:28;7.47;;;4.32;;
50717;SDS011;60557;51.350;12.410;2023-02-28T14:56:54;8.95;;;4.05;;
50717;SDS011;60557;51.350;12.410;2023-02-28T15:01:49;9.73;;;4.43;;
50717;SDS011;60557;51.350;12.410;2023-02-28T15:04:24;9.40;;;5.13;;
50717;SDS011;60557;51.350;12.410;2023-02-28T15:07:10;7.05;;;4.32;;
50717;SDS011;60557;51.350;12.410;2023-02-28T15:09:36;7.50;;;3.85;;
50717;SDS011;60557;51.350;12.410;2023-02-28T15:12:05;7.75;;;3.53;;
50717;SDS011;60557;51.350;12.410;2023-02-28T15:14:31;6.80;;;4.10;;
50717;SDS011;60557;51.350;12.410;2023-02-28T15:16:59;9.50;;;3.88;;
50717;SDS011;60557;51.350;12.410;2023-02-28T15:19:30;12.68;;;4.43;;
50717;SDS011;60557;51.350;12.410;2023-02-28T15:27:02;9.80;;;5.15;;
50717;SDS011;60557;51.350;12.410;2023-02-28T15:29:32;11.27;;;6.05;;
50717;SDS011;60557;51.350;12.410;2023-02-28T15:32:03;8.35;;;4.63;;
50717;SDS011;60557;51.350;12.410;2023-02-28T15:34:37;6.85;;;4.20;;
50717;SDS011;60557;51.350;12.410;2023-02-28T15:39:51;6.32;;;3.85;;
50717;SDS011;60557;51.350;12.410;2023-02-28T15:42:21;8.15;;;5.22;;
50717;SDS011;60557;51.350;12.410;2023-02-28T15:44:48;8.02;;;4.75;;
50717;SDS011;60557;51.350;12.410;2023-02-28T15:49:45;8.43;;;4.20;;
50717;SDS011;60557;51.350;12.410;2023-02-28T15:52:14;6.25;;;4.20;;
50717;SDS011;60557;51.350;12.410;2023-02-28T15:57:20;7.60;;;5.00;;
50717;SDS011;60557;51.350;12.410;2023-02-28T15:59:56;6.57;;;4.30;;
50717;SDS011;60557;51.350;12.410;2023-02-28T16:02:32;11.38;;;5.47;;
50717;SDS011;60557;51.350;12.410;2023-02-28T16:05:00;8.13;;;5.00;;
50717;SDS011;60557;51.350;12.410;2023-02-28T16:07:26;8.52;;;3.72;;
50717;SDS011;60557;51.350;12.410;2023-02-28T16:09:52;8.50;;;4.10;;
50717;SDS011;60557;51.350;12.410;2023-02-28T16:12:21;7.93;;;4.68;;
50717;SDS011;60557;51.350;12.410;2023-02-28T16:14:51;7.40;;;4.35;;
50717;SDS011;60557;51.350;12.410;2023-02-28T16:17:24;7.88;;;4.05;;
50717;SDS011;60557;51.350;12.410;2023-02-28T16:19:51;7.40;;;4.25;;
50717;SDS011;60557;51.350;12.410;2023-02-28T16:22:20;9.35;;;4.72;;
50717;SDS011;60557;51.350;12.410;2023-02-28T16:24:47;9.00;;;4.68;;
50717;SDS011;60557;51.350;12.410;2023-02-28T16:27:17;6.20;;;4.30;;
50717;SDS011;60557;51.350;12.410;2023-02-28T16:29:44;8.02;;;5.65;;
50717;SDS011;60557;51.350;12.410;2023-02-28T16:32:11;7.78;;;4.72;;
50717;SDS011;60557;51.350;12.410;2023-02-28T16:34:38;11.40;;;4.75;;
50717;SDS011;60557;51.350;12.410;2023-02-28T16:37:07;8.90;;;5.25;;
50717;SDS011;60557;51.350;12.410;2023-02-28T16:39:35;12.18;;;5.72;;
50717;SDS011;60557;51.350;12.410;2023-02-28T16:42:05;9.70;;;5.00;;
50717;SDS011;60557;51.350;12.410;2023-02-28T16:44:33;13.27;;;5.57;;
50717;SDS011;60557;51.350;12.410;2023-02-28T16:46:59;16.48;;;6.15;;
50717;SDS011;60557;51.350;12.410;2023-02-28T16:49:26;11.82;;;5.28;;
50717;SDS011;60557;51.350;12.410;2023-02-28T16:51:52;10.95;;;5.53;;
50717;SDS011;60557;51.350;12.410;2023-02-28T16:54:18;14.15;;;6.05;;
50717;SDS011;60557;51.350;12.410;2023-02-28T16:56:47;8.82;;;5.43;;
50717;SDS011;60557;51.350;12.410;2023-02-28T16:59:21;10.82;;;6.15;;
50717;SDS011;60557;51.350;12.410;2023-02-28T17:01:48;12.05;;;5.65;;
50717;SDS011;60557;51.350;12.410;2023-02-28T17:04:14;11.70;;;6.28;;
50717;SDS011;60557;51.350;12.410;2023-02-28T17:06:40;15.98;;;6.07;;
50717;SDS011;60557;51.350;12.410;2023-02-28T17:09:14;16.90;;;6.50;;
50717;SDS011;60557;51.350;12.410;2023-02-28T17:11:42;11.98;;;6.50;;
50717;SDS011;60557;51.350;12.410;2023-02-28T17:14:09;16.10;;;7.50;;
50717;SDS011;60557;51.350;12.410;2023-02-28T17:16:36;14.00;;;6.05;;
50717;SDS011;60557;51.350;12.410;2023-02-28T17:19:09;10.60;;;5.88;;
50717;SDS011;60557;51.350;12.410;2023-02-28T17:21:36;13.20;;;7.32;;
50717;SDS011;60557;51.350;12.410;2023-02-28T17:26:32;11.70;;;6.53;;
50717;SDS011;60557;51.350;12.410;2023-02-28T17:28:58;10.60;;;6.18;;
50717;SDS011;60557;51.350;12.410;2023-02-28T17:31:25;13.73;;;6.85;;
50717;SDS011;60557;51.350;12.410;2023-02-28T17:33:51;12.88;;;6.35;;
50717;SDS011;60557;51.350;12.410;2023-02-28T17:36:21;11.18;;;6.53;;